createdAt,value
2023-02-19T00:02:00.838Z,98141.41
2023-02-19T00:04:29.334Z,98138.66
2023-02-19T00:06:57.734Z,98130.41
2023-02-19T00:09:27.157Z,98124.09
2023-02-19T00:11:55.636Z,98135.09
2023-02-19T00:14:24.103Z,98132.34
2023-02-19T00:16:52.569Z,98128.75
2023-02-19T00:19:22.634Z,98134.25
2023-02-19T00:21:53.391Z,98124.09
2023-02-19T00:24:22.973Z,98128.75
2023-02-19T00:26:51.502Z,98120.81
2023-02-19T00:29:21.684Z,98127.94
2023-02-19T00:31:50.427Z,98127.94
2023-02-19T00:34:19.014Z,98124.38
2023-02-19T00:36:48.831Z,98120.81
2023-02-19T00:39:18.516Z,98121.63
2023-02-19T00:41:47.236Z,98120.00
2023-02-19T00:44:16.179Z,98120.00
2023-02-19T00:46:47.239Z,98118.06
2023-02-19T00:49:18.839Z,98112.84
2023-02-19T00:51:49.256Z,98112.03
2023-02-19T00:54:17.968Z,98104.06
2023-02-19T00:56:48.027Z,98112.84
2023-02-19T00:59:16.816Z,98112.84
2023-02-19T01:01:45.706Z,98120.28
2023-02-19T01:04:16.377Z,98123.03
2023-02-19T01:06:44.825Z,98125.50
2023-02-19T01:09:14.628Z,98127.72
2023-02-19T01:11:43.196Z,98125.50
2023-02-19T01:14:12.081Z,98115.59
2023-02-19T01:16:40.587Z,98112.84
2023-02-19T01:19:09.059Z,98113.66
2023-02-19T01:21:37.635Z,98108.97
2023-02-19T01:24:06.459Z,98095.22
2023-02-19T01:26:36.254Z,98092.47
2023-02-19T01:29:05.603Z,98100.75
2023-02-19T01:31:34.286Z,98092.47
2023-02-19T01:34:05.306Z,98086.97
2023-02-19T01:36:34.973Z,98086.16
2023-02-19T01:39:06.189Z,98075.97
2023-02-19T01:41:39.548Z,98081.47
2023-02-19T01:44:11.370Z,98080.66
2023-02-19T01:46:41.423Z,98072.72
2023-02-19T01:49:15.602Z,98077.09
2023-02-19T01:51:45.818Z,98074.34
2023-02-19T01:54:17.367Z,98067.72
2023-02-19T01:56:50.047Z,98061.41
2023-02-19T01:59:19.834Z,98053.16
2023-02-19T02:01:48.572Z,98046.84
2023-02-19T02:04:18.413Z,98046.84
2023-02-19T02:06:50.686Z,98046.84
2023-02-19T02:09:38.541Z,98046.84
2023-02-19T02:12:08.796Z,98046.84
2023-02-19T02:14:41.170Z,98046.03
2023-02-19T02:17:21.321Z,98044.09
2023-02-19T02:20:07.773Z,98039.69
2023-02-19T02:22:39.148Z,98039.69
2023-02-19T02:25:28.957Z,98045.22
2023-02-19T02:28:15.626Z,98039.69
2023-02-19T02:30:48.665Z,98036.94
2023-02-19T02:33:26.300Z,98032.56
2023-02-19T02:35:58.962Z,98034.19
2023-02-19T02:38:32.562Z,98027.06
2023-02-19T02:41:01.410Z,98021.56
2023-02-19T02:43:31.332Z,98023.19
2023-02-19T02:46:01.438Z,98028.69
2023-02-19T02:48:38.339Z,98024.31
2023-02-19T02:51:13.120Z,98022.69
2023-02-19T02:54:06.574Z,98020.75
2023-02-19T02:56:35.997Z,98015.25
2023-02-19T02:59:08.945Z,98023.78
2023-02-19T03:02:01.953Z,98014.44
2023-02-19T03:04:35.950Z,98010.88
2023-02-19T03:07:06.541Z,98008.94
2023-02-19T03:09:40.609Z,98014.44
2023-02-19T03:12:33.311Z,98000.69
2023-02-19T03:15:25.819Z,97996.28
2023-02-19T03:18:18.080Z,97995.19
2023-02-19T03:20:52.631Z,97999.03
2023-02-19T03:23:44.306Z,98006.47
2023-02-19T03:26:12.886Z,98000.97
2023-02-19T03:29:11.029Z,98002.91
2023-02-19T03:31:44.740Z,98001.78
2023-02-19T03:34:18.426Z,98002.91
2023-02-19T03:36:52.666Z,98013.09
2023-02-19T03:39:23.259Z,98002.91
2023-02-19T03:42:01.585Z,98005.66
2023-02-19T03:44:41.779Z,98008.41
2023-02-19T03:47:15.356Z,98005.66
2023-02-19T03:49:50.082Z,98006.78
2023-02-19T03:52:25.611Z,98009.22
2023-02-19T03:55:02.624Z,97998.53
2023-02-19T03:57:38.893Z,98020.53
2023-02-19T04:00:12.703Z,98015.84
2023-02-19T04:02:47.106Z,98018.88
2023-02-19T04:05:20.334Z,98026.03
2023-02-19T04:07:51.987Z,98029.06
2023-02-19T04:10:25.985Z,98027.97
2023-02-19T04:13:00.800Z,98032.94
2023-02-19T04:15:33.015Z,98038.13
2023-02-19T04:18:05.594Z,98035.38
2023-02-19T04:20:40.244Z,98038.13
2023-02-19T04:23:09.511Z,98037.31
2023-02-19T04:25:40.856Z,98044.75
2023-02-19T04:28:10.088Z,98046.69
2023-02-19T04:30:38.633Z,98047.50
2023-02-19T04:33:07.111Z,98056.56
2023-02-19T04:35:36.879Z,98055.75
2023-02-19T04:38:05.413Z,98062.06
2023-02-19T04:40:33.918Z,98061.25
2023-02-19T04:43:02.418Z,98059.31
2023-02-19T04:45:30.896Z,98063.72
2023-02-19T04:47:59.560Z,98061.25
2023-02-19T04:50:27.977Z,98057.38
2023-02-19T04:52:57.850Z,98055.75
2023-02-19T04:55:26.318Z,98062.06
2023-02-19T04:57:54.689Z,98073.06
2023-02-19T05:00:23.275Z,98069.22
2023-02-19T05:02:51.748Z,98075.81
2023-02-19T05:05:20.185Z,98082.16
2023-02-19T05:07:48.734Z,98080.22
2023-02-19T05:10:18.797Z,98082.16
2023-02-19T05:12:47.266Z,98080.50
2023-02-19T05:15:15.802Z,98084.88
2023-02-19T05:17:44.282Z,98083.25
2023-02-19T05:20:12.886Z,98078.56
2023-02-19T05:22:41.294Z,98086.00
2023-02-19T05:25:09.824Z,98082.44
2023-02-19T05:27:40.091Z,98088.75
2023-02-19T05:30:09.733Z,98095.88
2023-02-19T05:32:38.812Z,98099.75
2023-02-19T05:35:07.795Z,98097.00
2023-02-19T05:37:36.276Z,98099.75
2023-02-19T05:40:05.500Z,98089.56
2023-02-19T05:42:33.904Z,98088.75
2023-02-19T05:45:03.757Z,98105.25
2023-02-19T05:47:32.216Z,98104.44
2023-02-19T05:50:00.579Z,98100.88
2023-02-19T05:52:29.073Z,98105.25
2023-02-19T05:54:57.493Z,98109.13
2023-02-19T05:57:25.975Z,98117.38
2023-02-19T05:59:54.467Z,98126.44
2023-02-19T06:02:24.299Z,98125.63
2023-02-19T06:04:52.951Z,98124.81
2023-02-19T06:07:21.450Z,98130.31
2023-02-19T06:09:51.326Z,98129.47
2023-02-19T06:12:19.788Z,98136.91
2023-02-19T06:14:48.795Z,98132.22
2023-02-19T06:17:17.653Z,98137.72
2023-02-19T06:19:47.521Z,98144.06
2023-02-19T06:22:16.640Z,98146.81
2023-02-19T06:24:45.151Z,98148.72
2023-02-19T06:27:13.673Z,98149.84
2023-02-19T06:29:42.159Z,98162.47
2023-02-19T06:32:11.882Z,98155.34
2023-02-19T06:34:40.478Z,98160.84
2023-02-19T06:37:10.342Z,98171.84
2023-02-19T06:39:38.882Z,98169.09
2023-02-19T06:42:07.400Z,98175.72
2023-02-19T06:44:35.935Z,98171.84
2023-02-19T06:47:04.560Z,98171.03
2023-02-19T06:49:32.975Z,98189.47
2023-02-19T06:52:02.022Z,98189.47
2023-02-19T06:54:33.344Z,98204.03
2023-02-19T06:57:03.222Z,98197.72
2023-02-19T06:59:31.782Z,98207.06
2023-02-19T07:02:00.199Z,98201.56
2023-02-19T07:04:28.854Z,98201.56
2023-02-19T07:06:57.467Z,98196.06
2023-02-19T07:09:28.406Z,98214.22
2023-02-19T07:11:58.274Z,98212.56
2023-02-19T07:14:26.706Z,98209.81
2023-02-19T07:16:55.504Z,98212.56
2023-02-19T07:19:23.962Z,98213.69
2023-02-19T07:21:52.361Z,98221.09
2023-02-19T07:24:21.664Z,98221.94
2023-02-19T07:26:50.189Z,98234.56
2023-02-19T07:29:20.015Z,98215.59
2023-02-19T07:31:48.486Z,98223.03
2023-02-19T07:34:17.018Z,98232.09
2023-02-19T07:36:45.463Z,98230.47
2023-02-19T07:39:15.691Z,98237.91
2023-02-19T07:41:44.242Z,98241.47
2023-02-19T07:44:20.664Z,98237.38
2023-02-19T07:46:49.110Z,98240.19
2023-02-19T07:49:17.732Z,98233.63
2023-02-19T07:51:46.214Z,98244.63
2023-02-19T07:54:14.753Z,98233.63
2023-02-19T07:56:43.239Z,98247.06
2023-02-19T07:59:11.779Z,98249.53
2023-02-19T08:01:58.153Z,98246.78
2023-02-19T08:04:26.503Z,98252.81
2023-02-19T08:06:55.027Z,98258.31
2023-02-19T08:09:23.507Z,98258.56
2023-02-19T08:12:09.435Z,98266.50
2023-02-19T08:14:37.887Z,98259.31
2023-02-19T08:17:07.784Z,98261.50
2023-02-19T08:19:36.333Z,98255.41
2023-02-19T08:22:04.915Z,98260.91
2023-02-19T08:24:33.863Z,98259.25
2023-02-19T08:27:02.307Z,98268.88
2023-02-19T08:29:30.869Z,98278.47
2023-02-19T08:31:59.400Z,98281.75
2023-02-19T08:34:29.183Z,98292.16
2023-02-19T08:36:57.600Z,98302.06
2023-02-19T08:39:26.026Z,98310.03
2023-02-19T08:41:54.453Z,98311.94
2023-02-19T08:44:22.977Z,98313.59
2023-02-19T08:46:51.440Z,98320.72
2023-02-19T08:49:19.887Z,98321.56
2023-02-19T08:51:49.691Z,98322.91
2023-02-19T08:54:18.122Z,98311.59
2023-02-19T08:56:46.606Z,98314.34
2023-02-19T08:59:15.029Z,98317.34
2023-02-19T09:01:43.580Z,98315.41
2023-02-19T09:04:13.608Z,98310.72
2023-02-19T09:06:42.079Z,98325.03
2023-02-19T09:09:11.940Z,98316.75
2023-02-19T09:11:40.464Z,98327.50
2023-02-19T09:14:09.319Z,98331.09
2023-02-19T09:16:38.422Z,98331.91
2023-02-19T09:19:06.951Z,98335.47
2023-02-19T09:21:35.526Z,98337.41
2023-02-19T09:24:04.202Z,98342.63
2023-02-19T09:26:34.041Z,98336.28
2023-02-19T09:29:02.518Z,98336.00
2023-02-19T09:31:31.528Z,98348.66
2023-02-19T09:34:00.008Z,98347.81
2023-02-19T09:36:28.565Z,98348.34
2023-02-19T09:38:57.056Z,98351.13
2023-02-19T09:41:31.488Z,98351.94
2023-02-19T09:44:03.487Z,98356.63
2023-02-19T09:46:35.614Z,98361.81
2023-02-19T09:49:07.673Z,98365.41
2023-02-19T09:51:39.014Z,98361.53
2023-02-19T09:54:14.411Z,98361.53
2023-02-19T09:56:42.953Z,98358.50
2023-02-19T09:59:20.470Z,98375.00
2023-02-19T10:01:54.424Z,98371.13
2023-02-19T10:04:22.947Z,98382.16
2023-02-19T10:06:52.322Z,98382.44
2023-02-19T10:09:23.573Z,98388.81
2023-02-19T10:11:54.725Z,98391.03
2023-02-19T10:14:33.850Z,98383.91
2023-02-19T10:17:05.462Z,98382.25
2023-02-19T10:19:34.790Z,98378.38
2023-02-19T10:22:04.456Z,98376.16
2023-02-19T10:24:33.137Z,98374.25
2023-02-19T10:27:01.843Z,98367.63
2023-02-19T10:29:31.667Z,98372.00
2023-02-19T10:32:22.929Z,98376.41
2023-02-19T10:35:09.603Z,98372.53
2023-02-19T10:37:44.410Z,98367.03
2023-02-19T10:40:17.408Z,98374.19
2023-02-19T10:42:48.200Z,98378.88
2023-02-19T10:45:25.376Z,98374.19
2023-02-19T10:47:54.174Z,98374.19
2023-02-19T10:50:27.837Z,98370.31
2023-02-19T10:52:59.108Z,98371.97
2023-02-19T10:55:31.405Z,98367.28
2023-02-19T10:58:16.208Z,98371.66
2023-02-19T11:00:46.011Z,98374.41
2023-02-19T11:03:20.169Z,98376.06
2023-02-19T11:05:58.277Z,98379.34
2023-02-19T11:08:26.750Z,98374.94
2023-02-19T11:10:55.411Z,98379.34
2023-02-19T11:13:30.342Z,98369.69
2023-02-19T11:16:01.359Z,98385.38
2023-02-19T11:18:32.398Z,98374.38
2023-02-19T11:21:03.310Z,98387.56
2023-02-19T11:23:35.672Z,98382.03
2023-02-19T11:26:06.873Z,98379.28
2023-02-19T11:28:38.169Z,98382.56
2023-02-19T11:31:27.490Z,98379.81
2023-02-19T11:34:00.779Z,98376.78
2023-02-19T11:36:34.569Z,98378.72
2023-02-19T11:39:28.968Z,98380.66
2023-02-19T11:42:29.522Z,98377.38
2023-02-19T11:45:13.860Z,98376.59
2023-02-19T11:48:15.895Z,98374.41
2023-02-19T11:51:00.008Z,98388.75
2023-02-19T11:53:31.977Z,98393.75
2023-02-19T11:56:14.051Z,98395.97
2023-02-19T11:59:01.850Z,98400.13
2023-02-19T12:01:46.511Z,98406.72
2023-02-19T12:04:47.095Z,98408.94
2023-02-19T12:07:24.762Z,98406.44
2023-02-19T12:10:04.636Z,98415.81
2023-02-19T12:12:44.134Z,98415.81
2023-02-19T12:15:27.840Z,98414.47
2023-02-19T12:18:26.159Z,98423.53
2023-02-19T12:21:07.474Z,98412.81
2023-02-19T12:24:04.020Z,98409.25
2023-02-19T12:26:40.948Z,98420.25
2023-02-19T12:29:24.263Z,98415.03
2023-02-19T12:32:22.285Z,98401.56
2023-02-19T12:35:09.553Z,98400.47
2023-02-19T12:37:48.988Z,98390.84
2023-02-19T12:40:31.246Z,98400.22
2023-02-19T12:43:12.060Z,98389.22
2023-02-19T12:45:46.616Z,98389.22
2023-02-19T12:48:25.192Z,98392.25
2023-02-19T12:50:58.277Z,98391.72
2023-02-19T12:53:39.225Z,98399.97
2023-02-19T12:56:15.717Z,98401.38
2023-02-19T12:58:49.780Z,98383.22
2023-02-19T13:01:23.413Z,98371.69
2023-02-19T13:04:03.863Z,98384.63
2023-02-19T13:06:41.224Z,98385.72
2023-02-19T13:09:16.581Z,98385.19
2023-02-19T13:11:49.477Z,98383.56
2023-02-19T13:14:25.298Z,98386.88
2023-02-19T13:16:58.918Z,98400.63
2023-02-19T13:19:27.363Z,98389.63
2023-02-19T13:22:34.994Z,98399.00
2023-02-19T13:25:08.093Z,98393.50
2023-02-19T13:28:00.273Z,98400.94
2023-02-19T13:30:40.673Z,98395.72
2023-02-19T13:33:27.346Z,98394.88
2023-02-19T13:36:15.723Z,98389.38
2023-02-19T13:38:46.398Z,98388.56
2023-02-19T13:41:28.539Z,98382.00
2023-02-19T13:44:05.840Z,98384.19
2023-02-19T13:46:38.747Z,98386.94
2023-02-19T13:49:43.268Z,98392.44
2023-02-19T13:52:40.545Z,98403.44
2023-02-19T13:55:48.424Z,98398.75
2023-02-19T13:58:54.070Z,98403.44
2023-02-19T14:01:57.952Z,98392.44
2023-02-19T14:04:44.509Z,98380.59
2023-02-19T14:07:38.757Z,98390.78
2023-02-19T14:10:14.087Z,98385.28
2023-02-19T14:12:42.585Z,98384.47
2023-02-19T14:15:49.738Z,98385.28
2023-02-19T14:18:43.766Z,98393.00
2023-02-19T14:21:26.133Z,98389.16
2023-02-19T14:23:57.632Z,98389.16
2023-02-19T14:26:27.564Z,98387.50
2023-02-19T14:28:56.299Z,98386.69
2023-02-19T14:31:30.159Z,98387.50
2023-02-19T14:34:01.477Z,98395.19
2023-02-19T14:36:39.845Z,98391.84
2023-02-19T14:39:14.761Z,98399.53
2023-02-19T14:41:46.709Z,98405.00
2023-02-19T14:44:20.030Z,98409.09
2023-02-19T14:46:55.780Z,98409.34
2023-02-19T14:49:29.972Z,98416.47
2023-02-19T14:52:06.738Z,98419.75
2023-02-19T14:54:42.264Z,98434.88
2023-02-19T14:57:18.441Z,98431.59
2023-02-19T14:59:55.052Z,98434.63
2023-02-19T15:02:25.882Z,98444.81
2023-02-19T15:04:55.139Z,98436.84
2023-02-19T15:07:27.553Z,98442.91
2023-02-19T15:09:58.586Z,98458.84
2023-02-19T15:12:31.307Z,98447.56
2023-02-19T15:15:03.628Z,98450.56
2023-02-19T15:17:34.980Z,98456.88
2023-02-19T15:20:06.272Z,98458.25
2023-02-19T15:22:36.311Z,98465.09
2023-02-19T15:25:07.122Z,98463.16
2023-02-19T15:27:37.384Z,98473.06
2023-02-19T15:30:21.124Z,98481.84
2023-02-19T15:32:54.581Z,98476.91
2023-02-19T15:35:25.105Z,98478.84
2023-02-19T15:37:56.147Z,98480.75
2023-02-19T15:40:29.345Z,98477.44
2023-02-19T15:43:00.025Z,98472.75
2023-02-19T15:45:42.322Z,98468.91
2023-02-19T15:48:15.704Z,98462.56
2023-02-19T15:50:47.967Z,98460.34
2023-02-19T15:53:22.814Z,98461.19
2023-02-19T15:55:59.977Z,98460.06
2023-02-19T15:58:34.014Z,98458.97
2023-02-19T16:01:04.400Z,98464.19
2023-02-19T16:03:33.673Z,98463.88
2023-02-19T16:06:05.296Z,98470.22
2023-02-19T16:08:36.659Z,98474.91
2023-02-19T16:11:27.400Z,98477.38
2023-02-19T16:14:18.031Z,98471.03
2023-02-19T16:16:49.469Z,98459.22
2023-02-19T16:19:22.742Z,98468.00
2023-02-19T16:21:52.070Z,98476.25
2023-02-19T16:24:29.208Z,98476.78
2023-02-19T16:26:59.231Z,98466.88
2023-02-19T16:29:31.557Z,98475.16
2023-02-19T16:32:03.359Z,98486.69
2023-02-19T16:34:35.295Z,98487.78
2023-02-19T16:37:04.653Z,98496.59
2023-02-19T16:39:35.154Z,98489.44
2023-02-19T16:42:15.412Z,98495.75
2023-02-19T16:44:45.257Z,98497.41
2023-02-19T16:47:19.472Z,98504.56
2023-02-19T16:49:48.003Z,98494.38
2023-02-19T16:52:17.141Z,98492.72
2023-02-19T16:54:48.803Z,98482.28
2023-02-19T16:57:17.519Z,98483.69
2023-02-19T16:59:45.982Z,98485.91
2023-02-19T17:02:20.300Z,98483.44
2023-02-19T17:04:50.183Z,98495.03
2023-02-19T17:07:19.691Z,98507.16
2023-02-19T17:09:49.579Z,98506.59
2023-02-19T17:12:19.053Z,98510.47
2023-02-19T17:14:47.654Z,98510.75
2023-02-19T17:17:16.220Z,98518.19
2023-02-19T17:19:44.792Z,98517.63
2023-02-19T17:22:16.889Z,98527.81
2023-02-19T17:24:45.972Z,98524.22
2023-02-19T17:27:16.135Z,98528.09
2023-02-19T17:29:44.907Z,98533.59
2023-02-19T17:32:14.495Z,98535.81
2023-02-19T17:34:43.169Z,98540.25
2023-02-19T17:37:11.860Z,98544.41
2023-02-19T17:39:40.358Z,98543.09
2023-02-19T17:42:08.916Z,98554.66
2023-02-19T17:44:38.856Z,98553.56
2023-02-19T17:47:07.511Z,98574.75
2023-02-19T17:49:36.316Z,98570.09
2023-02-19T17:52:05.596Z,98588.22
2023-02-19T17:54:34.247Z,98587.13
2023-02-19T17:57:02.876Z,98597.03
2023-02-19T17:59:31.336Z,98594.25
2023-02-19T18:02:03.184Z,98594.81
2023-02-19T18:04:31.852Z,98594.81
2023-02-19T18:07:00.884Z,98603.34
2023-02-19T18:09:29.382Z,98606.09
2023-02-19T18:11:57.933Z,98609.13
2023-02-19T18:14:26.503Z,98621.22
2023-02-19T18:16:55.202Z,98625.91
2023-02-19T18:19:26.021Z,98629.75
2023-02-19T18:21:54.686Z,98642.13
2023-02-19T18:24:23.176Z,98643.75
2023-02-19T18:26:51.796Z,98637.69
2023-02-19T18:29:21.924Z,98644.28
2023-02-19T18:31:50.588Z,98650.03
2023-02-19T18:34:20.307Z,98646.72
2023-02-19T18:36:50.722Z,98645.59
2023-02-19T18:39:19.355Z,98649.72
2023-02-19T18:41:48.836Z,98654.66
2023-02-19T18:44:20.657Z,98661.81
2023-02-19T18:46:49.952Z,98650.81
2023-02-19T18:49:18.711Z,98650.53
2023-02-19T18:51:47.577Z,98651.09
2023-02-19T18:54:17.538Z,98649.44
2023-02-19T18:56:47.335Z,98657.41
2023-02-19T18:59:16.038Z,98655.47
2023-02-19T19:01:44.621Z,98659.06
2023-02-19T19:04:13.447Z,98659.88
2023-02-19T19:06:41.990Z,98651.34
2023-02-19T19:09:10.647Z,98656.84
2023-02-19T19:11:41.308Z,98656.84
2023-02-19T19:14:09.851Z,98665.09
2023-02-19T19:16:38.562Z,98671.16
2023-02-19T19:19:07.210Z,98669.50
2023-02-19T19:21:35.694Z,98668.41
2023-02-19T19:24:04.445Z,98671.16
2023-02-19T19:26:33.363Z,98665.66
2023-02-19T19:29:03.179Z,98671.16
2023-02-19T19:31:36.291Z,98671.97
2023-02-19T19:34:04.906Z,98670.88
2023-02-19T19:36:33.853Z,98668.94
2023-02-19T19:39:02.676Z,98665.06
2023-02-19T19:41:31.846Z,98667.53
2023-02-19T19:44:05.335Z,98674.97
2023-02-19T19:46:34.252Z,98680.19
2023-02-19T19:49:03.079Z,98679.38
2023-02-19T19:51:32.923Z,98681.03
2023-02-19T19:54:03.084Z,98682.66
2023-02-19T19:56:31.923Z,98677.16
2023-02-19T19:59:00.410Z,98689.81
2023-02-19T20:01:30.377Z,98690.63
2023-02-19T20:03:59.053Z,98689.00
2023-02-19T20:06:29.250Z,98690.63
2023-02-19T20:08:59.523Z,98696.97
2023-02-19T20:11:28.199Z,98693.13
2023-02-19T20:13:56.635Z,98692.28
2023-02-19T20:16:27.041Z,98685.97
2023-02-19T20:18:57.071Z,98679.34
2023-02-19T20:21:26.354Z,98680.47
2023-02-19T20:23:54.926Z,98672.19
2023-02-19T20:26:25.510Z,98671.91
2023-02-19T20:28:54.523Z,98674.94
2023-02-19T20:31:23.587Z,98674.94
2023-02-19T20:33:52.584Z,98672.19
2023-02-19T20:36:22.430Z,98673.81
2023-02-19T20:38:51.252Z,98683.16
2023-02-19T20:41:19.993Z,98684.25
2023-02-19T20:43:48.688Z,98698.06
2023-02-19T20:46:17.567Z,98695.31
2023-02-19T20:48:46.159Z,98695.88
2023-02-19T20:51:14.811Z,98683.81
2023-02-19T20:53:44.791Z,98698.13
2023-02-19T20:56:13.648Z,98687.69
2023-02-19T20:58:43.669Z,98683.00
2023-02-19T21:01:12.669Z,98686.03
2023-02-19T21:03:41.168Z,98676.41
2023-02-19T21:06:09.997Z,98679.72
2023-02-19T21:08:38.688Z,98677.53
2023-02-19T21:11:08.498Z,98686.06
2023-02-19T21:13:37.151Z,98683.88
2023-02-19T21:16:06.206Z,98684.16
2023-02-19T21:18:34.970Z,98688.84
2023-02-19T21:21:03.545Z,98679.50
2023-02-19T21:23:32.079Z,98686.94
2023-02-19T21:26:02.935Z,98688.88
2023-02-19T21:28:32.817Z,98689.97
2023-02-19T21:31:02.456Z,98693.00
2023-02-19T21:33:30.966Z,98691.34
2023-02-19T21:35:59.534Z,98688.59
2023-02-19T21:38:27.985Z,98688.88
2023-02-19T21:40:56.533Z,98692.75
2023-02-19T21:43:25.010Z,98699.06
2023-02-19T21:45:55.013Z,98688.34
2023-02-19T21:48:23.962Z,98694.94
2023-02-19T21:50:52.506Z,98686.97
2023-02-19T21:53:21.015Z,98689.44
2023-02-19T21:55:58.211Z,98686.97
2023-02-19T21:58:27.121Z,98674.31
2023-02-19T22:00:58.189Z,98683.69
2023-02-19T22:03:26.908Z,98679.00
2023-02-19T22:05:55.642Z,98676.53
2023-02-19T22:08:24.156Z,98681.75
2023-02-19T22:10:52.608Z,98682.84
2023-02-19T22:13:21.060Z,98683.97
2023-02-19T22:15:49.625Z,98679.56
2023-02-19T22:18:19.470Z,98682.31
2023-02-19T22:20:47.921Z,98676.28
2023-02-19T22:23:16.499Z,98688.91
2023-02-19T22:25:44.960Z,98691.66
2023-02-19T22:28:13.522Z,98692.78
2023-02-19T22:30:43.020Z,98698.28
2023-02-19T22:33:11.700Z,98707.34
2023-02-19T22:35:41.718Z,98703.78
2023-02-19T22:38:10.148Z,98707.63
2023-02-19T22:40:38.655Z,98701.31
2023-02-19T22:43:07.168Z,98705.97
2023-02-19T22:45:36.608Z,98708.72
2023-02-19T22:48:05.197Z,98710.66
2023-02-19T22:50:33.700Z,98708.72
2023-02-19T22:53:03.535Z,98707.91
2023-02-19T22:55:32.046Z,98715.31
2023-02-19T22:58:00.451Z,98715.31
2023-02-19T23:00:28.916Z,98714.50
2023-02-19T23:02:57.542Z,98713.69
2023-02-19T23:05:26.073Z,98706.53
2023-02-19T23:07:54.466Z,98719.19
2023-02-19T23:10:24.301Z,98729.34
2023-02-19T23:12:52.744Z,98732.94
2023-02-19T23:15:21.245Z,98731.56
2023-02-19T23:17:49.670Z,98726.59
2023-02-19T23:20:18.191Z,98734.03
2023-02-19T23:22:46.610Z,98737.88
2023-02-19T23:25:15.257Z,98739.53
2023-02-19T23:27:45.083Z,98731.56
2023-02-19T23:30:14.211Z,98730.72
2023-02-19T23:32:45.068Z,98731.84
2023-02-19T23:35:13.716Z,98731.84
2023-02-19T23:37:42.162Z,98725.50
2023-02-19T23:40:12.097Z,98722.75
2023-02-19T23:42:40.551Z,98721.94
2023-02-19T23:45:10.754Z,98732.13
2023-02-19T23:47:39.341Z,98721.94
2023-02-19T23:50:08.643Z,98731.28
2023-02-19T23:52:37.013Z,98725.78
2023-02-19T23:55:05.994Z,98728.53
2023-02-19T23:57:34.501Z,98720.28
